Virtual LH

Virtual LH. There's no better way to fly
Since 2013.



AIRPORT MAP

METAR AND TAF INFORMATION

METAR FOR LOWL
ADDS - METARS form results

(0049 UTC 23 July 2019)
Data provider http://aviationweather.gov/metar/data/
 
METAR text: LOWL 230020Z AUTO 29003KT 9999 FEW140 18/15 Q1023
Conditions at: LOWL (LINZ (CIV/MIL) , AT) observed 0020 UTC 23 July 2019
Temperature: 18.0°C (64°F)
Dewpoint: 15.0°C (59°F) [RH = 83%]
Pressure (altimeter): 30.21 inches Hg (1023.0 mb)
Winds: from the WNW (290 degrees) at 3 MPH (3 knots; 1.5 m/s)
Visibility: 6 or more miles (10+ km)
Ceiling: at least 12,000 feet AGL
Clouds: few clouds at 14000 feet AGL
Weather: no significant weather observed at this time

METAR text: LOWL 222350Z AUTO 27004KT 9999 NSC 19/16 Q1023
Conditions at: LOWL (LINZ (CIV/MIL) , AT) observed 2350 UTC 22 July 2019
Temperature: 19.0°C (66°F)
Dewpoint: 16.0°C (61°F) [RH = 83%]
Pressure (altimeter): 30.21 inches Hg (1023.0 mb)
Winds: from the W (270 degrees) at 5 MPH (4 knots; 2.1 m/s)
Visibility: 6 or more miles (10+ km)
Ceiling: at least 12,000 feet AGL
Clouds: sky clear below 12,000 feet AGL
Weather: no significant weather observed at this time

Forecast for: LOWL (LINZ (CIV/MIL) , AT)
Text: TAF LOWL 222315Z 2300/2324 29004KT CAVOK TX32/2316Z TN17/2304Z
Forecast period: 0000 UTC 23 July 2019 to 0000 UTC 24 July 2019
Forecast type: FROM: standard forecast or significant change
Winds: from the WNW (290 degrees) at 5 MPH (4 knots; 2.1 m/s)
Visibility: 6 or more miles 10+ km)
Ceiling: unknown
Clouds: missing
Weather: no significant weather forecast for this period

RUNWAY INFORMATION

Runway 09 Runway length 9843 ft Runway width 197 ft
Runway elevation 978 ft Runway displaced threshold 821 ft Runway heading 87
Runway 27 Runway length 9843 ft Runway width 197 ft
Runway elevation 963 ft Runway displaced threshold 493 ft Runway heading 267
Runway 09L Runway length 2165 ft Runway width 148 ft
Runway elevation 971 ft Runway displaced threshold 0 ft Runway heading 87
Runway 27R Runway length 2165 ft Runway width 148 ft
Runway elevation 968 ft Runway displaced threshold 0 ft Runway heading 267

AIRPORT FREQUENCIES

Type APP Name RADAR Frequency 129.625 MHZ
Type ATIS Name ATIS Frequency 128.125 MHZ
Type TWR Name TWR Frequency 118.8 MHZ

AIRPORT NEAR NAVIGATION AIDS